sensor_id;sensor_type;location;lat;lon;timestamp;temperature;humidity
12604;DHT22;6367;52.508;13.284;2023-12-20T00:00:05;10.90;99.90
12604;DHT22;6367;52.508;13.284;2023-12-20T00:02:31;10.90;99.90
12604;DHT22;6367;52.508;13.284;2023-12-20T00:04:57;11.60;99.90
12604;DHT22;6367;52.508;13.284;2023-12-20T00:07:22;10.90;99.90
12604;DHT22;6367;52.508;13.284;2023-12-20T00:09:48;10.80;99.90
12604;DHT22;6367;52.508;13.284;2023-12-20T00:12:14;10.80;99.90
12604;DHT22;6367;52.508;13.284;2023-12-20T00:14:39;10.80;99.90
12604;DHT22;6367;52.508;13.284;2023-12-20T00:17:05;10.90;99.90
12604;DHT22;6367;52.508;13.284;2023-12-20T00:19:31;10.90;99.90
12604;DHT22;6367;52.508;13.284;2023-12-20T00:21:56;11.30;99.90
12604;DHT22;6367;52.508;13.284;2023-12-20T00:24:22;10.90;99.90
12604;DHT22;6367;52.508;13.284;2023-12-20T00:26:47;10.90;99.90
12604;DHT22;6367;52.508;13.284;2023-12-20T00:29:13;10.90;99.90
12604;DHT22;6367;52.508;13.284;2023-12-20T00:31:39;11.50;99.90
12604;DHT22;6367;52.508;13.284;2023-12-20T00:34:04;11.00;99.90
12604;DHT22;6367;52.508;13.284;2023-12-20T00:36:30;10.90;99.90
12604;DHT22;6367;52.508;13.284;2023-12-20T00:38:56;11.00;99.90
12604;DHT22;6367;52.508;13.284;2023-12-20T00:41:22;10.90;99.90
12604;DHT22;6367;52.508;13.284;2023-12-20T00:43:48;10.90;99.90
12604;DHT22;6367;52.508;13.284;2023-12-20T00:46:14;10.90;99.90
12604;DHT22;6367;52.508;13.284;2023-12-20T00:48:39;10.90;99.90
12604;DHT22;6367;52.508;13.284;2023-12-20T00:51:07;10.90;99.90
12604;DHT22;6367;52.508;13.284;2023-12-20T00:53:33;10.80;99.90
12604;DHT22;6367;52.508;13.284;2023-12-20T00:55:59;10.90;99.90
12604;DHT22;6367;52.508;13.284;2023-12-20T00:58:24;10.80;99.90
12604;DHT22;6367;52.508;13.284;2023-12-20T01:00:50;10.90;99.90
12604;DHT22;6367;52.508;13.284;2023-12-20T01:03:16;11.00;99.90
12604;DHT22;6367;52.508;13.284;2023-12-20T01:05:42;11.40;99.90
12604;DHT22;6367;52.508;13.284;2023-12-20T01:08:07;10.90;99.90
12604;DHT22;6367;52.508;13.284;2023-12-20T01:10:33;10.80;99.90
12604;DHT22;6367;52.508;13.284;2023-12-20T01:12:59;10.80;99.90
12604;DHT22;6367;52.508;13.284;2023-12-20T01:15:24;10.90;99.90
12604;DHT22;6367;52.508;13.284;2023-12-20T01:17:50;10.90;99.90
12604;DHT22;6367;52.508;13.284;2023-12-20T01:20:16;10.80;99.90
12604;DHT22;6367;52.508;13.284;2023-12-20T01:22:42;10.90;99.90
12604;DHT22;6367;52.508;13.284;2023-12-20T01:25:08;10.90;99.90
12604;DHT22;6367;52.508;13.284;2023-12-20T01:27:34;11.50;99.90
12604;DHT22;6367;52.508;13.284;2023-12-20T01:29:59;10.90;99.90
12604;DHT22;6367;52.508;13.284;2023-12-20T01:32:25;10.90;99.90
12604;DHT22;6367;52.508;13.284;2023-12-20T01:34:51;10.90;99.90
12604;DHT22;6367;52.508;13.284;2023-12-20T01:37:16;10.90;99.90
12604;DHT22;6367;52.508;13.284;2023-12-20T01:39:42;10.90;99.90
12604;DHT22;6367;52.508;13.284;2023-12-20T01:42:08;10.90;99.90
12604;DHT22;6367;52.508;13.284;2023-12-20T01:44:33;10.90;99.90
12604;DHT22;6367;52.508;13.284;2023-12-20T01:46:59;10.90;99.90
12604;DHT22;6367;52.508;13.284;2023-12-20T01:49:25;11.00;99.90
12604;DHT22;6367;52.508;13.284;2023-12-20T01:51:51;11.00;99.90
12604;DHT22;6367;52.508;13.284;2023-12-20T01:54:17;11.00;99.90
12604;DHT22;6367;52.508;13.284;2023-12-20T01:56:45;11.00;99.90
12604;DHT22;6367;52.508;13.284;2023-12-20T01:59:10;11.70;99.90
12604;DHT22;6367;52.508;13.284;2023-12-20T02:01:36;10.90;99.90
12604;DHT22;6367;52.508;13.284;2023-12-20T02:04:02;11.00;99.90
12604;DHT22;6367;52.508;13.284;2023-12-20T02:06:30;11.00;99.90
12604;DHT22;6367;52.508;13.284;2023-12-20T02:08:58;11.00;99.90
12604;DHT22;6367;52.508;13.284;2023-12-20T02:11:25;10.90;99.90
12604;DHT22;6367;52.508;13.284;2023-12-20T02:13:51;11.40;99.90
12604;DHT22;6367;52.508;13.284;2023-12-20T02:16:17;11.50;99.90
12604;DHT22;6367;52.508;13.284;2023-12-20T02:18:43;10.90;99.90
12604;DHT22;6367;52.508;13.284;2023-12-20T02:21:12;11.00;99.90
12604;DHT22;6367;52.508;13.284;2023-12-20T02:23:38;11.20;99.90
12604;DHT22;6367;52.508;13.284;2023-12-20T02:26:04;10.90;99.90
12604;DHT22;6367;52.508;13.284;2023-12-20T02:28:32;11.00;99.90
12604;DHT22;6367;52.508;13.284;2023-12-20T02:30:58;11.00;99.90
12604;DHT22;6367;52.508;13.284;2023-12-20T02:33:23;11.00;99.90
12604;DHT22;6367;52.508;13.284;2023-12-20T02:35:49;10.90;99.90
12604;DHT22;6367;52.508;13.284;2023-12-20T02:38:15;10.90;99.90
12604;DHT22;6367;52.508;13.284;2023-12-20T02:40:41;10.80;99.90
12604;DHT22;6367;52.508;13.284;2023-12-20T02:43:06;10.90;99.90
12604;DHT22;6367;52.508;13.284;2023-12-20T02:45:32;10.80;99.90
12604;DHT22;6367;52.508;13.284;2023-12-20T02:47:58;10.70;99.90
12604;DHT22;6367;52.508;13.284;2023-12-20T02:50:23;10.80;99.90
12604;DHT22;6367;52.508;13.284;2023-12-20T02:52:49;10.90;99.90
12604;DHT22;6367;52.508;13.284;2023-12-20T02:55:14;10.90;99.90
12604;DHT22;6367;52.508;13.284;2023-12-20T02:57:40;10.90;99.90
12604;DHT22;6367;52.508;13.284;2023-12-20T03:00:08;10.90;99.90
12604;DHT22;6367;52.508;13.284;2023-12-20T03:02:35;10.80;99.90
12604;DHT22;6367;52.508;13.284;2023-12-20T03:05:01;11.50;99.90
12604;DHT22;6367;52.508;13.284;2023-12-20T03:07:26;10.80;99.90
12604;DHT22;6367;52.508;13.284;2023-12-20T03:09:52;10.80;99.90
12604;DHT22;6367;52.508;13.284;2023-12-20T03:12:18;10.90;99.90
12604;DHT22;6367;52.508;13.284;2023-12-20T03:14:44;10.80;99.90
12604;DHT22;6367;52.508;13.284;2023-12-20T03:17:10;10.80;99.90
12604;DHT22;6367;52.508;13.284;2023-12-20T03:19:35;10.80;99.90
12604;DHT22;6367;52.508;13.284;2023-12-20T03:22:01;10.80;99.90
12604;DHT22;6367;52.508;13.284;2023-12-20T03:24:27;10.80;99.90
12604;DHT22;6367;52.508;13.284;2023-12-20T03:26:53;10.70;99.90
12604;DHT22;6367;52.508;13.284;2023-12-20T03:29:18;10.80;99.90
12604;DHT22;6367;52.508;13.284;2023-12-20T03:31:44;10.80;99.90
12604;DHT22;6367;52.508;13.284;2023-12-20T03:34:11;10.80;99.90
12604;DHT22;6367;52.508;13.284;2023-12-20T03:36:37;10.90;99.90
12604;DHT22;6367;52.508;13.284;2023-12-20T03:39:03;10.80;99.90
12604;DHT22;6367;52.508;13.284;2023-12-20T03:41:29;10.90;99.90
12604;DHT22;6367;52.508;13.284;2023-12-20T03:43:54;10.80;99.90
12604;DHT22;6367;52.508;13.284;2023-12-20T03:46:21;10.70;99.90
12604;DHT22;6367;52.508;13.284;2023-12-20T03:48:47;10.80;99.90
12604;DHT22;6367;52.508;13.284;2023-12-20T03:51:12;10.70;99.90
12604;DHT22;6367;52.508;13.284;2023-12-20T03:53:38;10.60;99.90
12604;DHT22;6367;52.508;13.284;2023-12-20T03:56:05;10.60;99.90
12604;DHT22;6367;52.508;13.284;2023-12-20T03:58:30;10.60;99.90
12604;DHT22;6367;52.508;13.284;2023-12-20T04:00:56;10.70;99.90
12604;DHT22;6367;52.508;13.284;2023-12-20T04:03:22;10.80;99.90
12604;DHT22;6367;52.508;13.284;2023-12-20T04:05:47;10.70;99.90
12604;DHT22;6367;52.508;13.284;2023-12-20T04:08:13;10.80;99.90
12604;DHT22;6367;52.508;13.284;2023-12-20T04:10:39;10.70;99.90
12604;DHT22;6367;52.508;13.284;2023-12-20T04:13:04;10.70;99.90
12604;DHT22;6367;52.508;13.284;2023-12-20T04:15:30;10.70;99.90
12604;DHT22;6367;52.508;13.284;2023-12-20T04:17:56;10.80;99.90
12604;DHT22;6367;52.508;13.284;2023-12-20T04:20:21;10.70;99.90
12604;DHT22;6367;52.508;13.284;2023-12-20T04:22:47;10.70;99.90
12604;DHT22;6367;52.508;13.284;2023-12-20T04:25:12;10.70;99.90
12604;DHT22;6367;52.508;13.284;2023-12-20T04:27:38;10.70;99.90
12604;DHT22;6367;52.508;13.284;2023-12-20T04:30:04;10.70;99.90
12604;DHT22;6367;52.508;13.284;2023-12-20T04:32:30;10.60;99.90
12604;DHT22;6367;52.508;13.284;2023-12-20T04:34:56;10.60;99.90
12604;DHT22;6367;52.508;13.284;2023-12-20T04:37:22;10.70;99.90
12604;DHT22;6367;52.508;13.284;2023-12-20T04:39:48;10.60;99.90
12604;DHT22;6367;52.508;13.284;2023-12-20T04:42:13;10.60;99.90
12604;DHT22;6367;52.508;13.284;2023-12-20T04:44:39;10.60;99.90
12604;DHT22;6367;52.508;13.284;2023-12-20T04:47:05;10.60;99.90
12604;DHT22;6367;52.508;13.284;2023-12-20T04:49:30;10.50;99.90
12604;DHT22;6367;52.508;13.284;2023-12-20T04:51:56;10.60;99.90
12604;DHT22;6367;52.508;13.284;2023-12-20T04:54:22;10.50;99.90
12604;DHT22;6367;52.508;13.284;2023-12-20T04:56:47;10.50;99.90
12604;DHT22;6367;52.508;13.284;2023-12-20T04:59:13;10.60;99.90
12604;DHT22;6367;52.508;13.284;2023-12-20T05:01:39;10.60;99.90
12604;DHT22;6367;52.508;13.284;2023-12-20T05:04:04;10.50;99.90
12604;DHT22;6367;52.508;13.284;2023-12-20T05:06:30;10.40;99.90
12604;DHT22;6367;52.508;13.284;2023-12-20T05:08:56;10.40;99.90
12604;DHT22;6367;52.508;13.284;2023-12-20T05:11:21;10.30;99.90
12604;DHT22;6367;52.508;13.284;2023-12-20T05:13:47;10.40;99.90
12604;DHT22;6367;52.508;13.284;2023-12-20T05:16:13;10.40;99.90
12604;DHT22;6367;52.508;13.284;2023-12-20T05:18:40;10.40;99.90
12604;DHT22;6367;52.508;13.284;2023-12-20T05:21:05;10.30;99.90
12604;DHT22;6367;52.508;13.284;2023-12-20T05:23:32;10.40;99.90
12604;DHT22;6367;52.508;13.284;2023-12-20T05:25:57;10.70;99.90
12604;DHT22;6367;52.508;13.284;2023-12-20T05:28:24;10.40;99.90
12604;DHT22;6367;52.508;13.284;2023-12-20T05:30:50;9.40;99.90
12604;DHT22;6367;52.508;13.284;2023-12-20T05:33:15;10.30;99.90
12604;DHT22;6367;52.508;13.284;2023-12-20T05:35:41;10.20;99.90
12604;DHT22;6367;52.508;13.284;2023-12-20T05:38:07;10.10;99.90
12604;DHT22;6367;52.508;13.284;2023-12-20T05:40:32;10.10;99.90
12604;DHT22;6367;52.508;13.284;2023-12-20T05:42:58;10.00;99.90
12604;DHT22;6367;52.508;13.284;2023-12-20T05:45:23;10.00;99.90
12604;DHT22;6367;52.508;13.284;2023-12-20T05:47:49;10.00;99.90
12604;DHT22;6367;52.508;13.284;2023-12-20T05:50:15;10.00;99.90
12604;DHT22;6367;52.508;13.284;2023-12-20T05:52:40;10.00;99.90
12604;DHT22;6367;52.508;13.284;2023-12-20T05:55:06;10.00;99.90
12604;DHT22;6367;52.508;13.284;2023-12-20T05:57:32;10.00;99.90
12604;DHT22;6367;52.508;13.284;2023-12-20T05:59:58;10.00;99.90
12604;DHT22;6367;52.508;13.284;2023-12-20T06:02:23;9.90;99.90
12604;DHT22;6367;52.508;13.284;2023-12-20T06:04:49;9.90;99.90
12604;DHT22;6367;52.508;13.284;2023-12-20T06:07:16;9.80;99.90
12604;DHT22;6367;52.508;13.284;2023-12-20T06:09:41;9.80;99.90
12604;DHT22;6367;52.508;13.284;2023-12-20T06:12:08;9.80;99.90
12604;DHT22;6367;52.508;13.284;2023-12-20T06:14:36;9.70;99.90
12604;DHT22;6367;52.508;13.284;2023-12-20T06:17:02;9.70;99.90
12604;DHT22;6367;52.508;13.284;2023-12-20T06:19:28;9.70;99.90
12604;DHT22;6367;52.508;13.284;2023-12-20T06:21:54;10.10;99.90
12604;DHT22;6367;52.508;13.284;2023-12-20T06:24:19;9.70;99.90
12604;DHT22;6367;52.508;13.284;2023-12-20T06:26:46;9.70;99.90
12604;DHT22;6367;52.508;13.284;2023-12-20T06:29:12;9.70;99.90
12604;DHT22;6367;52.508;13.284;2023-12-20T06:31:38;9.80;99.90
12604;DHT22;6367;52.508;13.284;2023-12-20T06:34:03;9.80;99.90
12604;DHT22;6367;52.508;13.284;2023-12-20T06:36:29;9.70;99.90
12604;DHT22;6367;52.508;13.284;2023-12-20T06:38:55;9.70;99.90
12604;DHT22;6367;52.508;13.284;2023-12-20T06:41:20;9.70;99.90
12604;DHT22;6367;52.508;13.284;2023-12-20T06:43:46;9.70;99.90
12604;DHT22;6367;52.508;13.284;2023-12-20T06:46:12;9.90;99.90
12604;DHT22;6367;52.508;13.284;2023-12-20T06:48:39;9.90;99.90
12604;DHT22;6367;52.508;13.284;2023-12-20T06:51:05;9.90;99.90
12604;DHT22;6367;52.508;13.284;2023-12-20T06:53:31;9.90;99.90
12604;DHT22;6367;52.508;13.284;2023-12-20T06:55:56;9.90;99.90
12604;DHT22;6367;52.508;13.284;2023-12-20T06:58:23;9.90;99.90
12604;DHT22;6367;52.508;13.284;2023-12-20T07:00:49;9.90;99.90
12604;DHT22;6367;52.508;13.284;2023-12-20T07:03:15;9.90;99.90
12604;DHT22;6367;52.508;13.284;2023-12-20T07:05:40;9.80;99.90
12604;DHT22;6367;52.508;13.284;2023-12-20T07:08:07;9.80;99.90
12604;DHT22;6367;52.508;13.284;2023-12-20T07:10:32;9.70;99.90
12604;DHT22;6367;52.508;13.284;2023-12-20T07:12:58;9.70;99.90
12604;DHT22;6367;52.508;13.284;2023-12-20T07:15:24;9.60;99.90
12604;DHT22;6367;52.508;13.284;2023-12-20T07:17:49;9.70;99.90
12604;DHT22;6367;52.508;13.284;2023-12-20T07:20:15;9.60;99.90
12604;DHT22;6367;52.508;13.284;2023-12-20T07:22:41;9.70;99.90
12604;DHT22;6367;52.508;13.284;2023-12-20T07:25:07;9.60;99.90
12604;DHT22;6367;52.508;13.284;2023-12-20T07:27:33;9.60;99.90
12604;DHT22;6367;52.508;13.284;2023-12-20T07:29:59;9.50;99.90
12604;DHT22;6367;52.508;13.284;2023-12-20T07:32:25;9.60;99.90
12604;DHT22;6367;52.508;13.284;2023-12-20T07:34:51;9.60;99.90
12604;DHT22;6367;52.508;13.284;2023-12-20T07:37:16;10.00;99.90
12604;DHT22;6367;52.508;13.284;2023-12-20T07:39:42;9.70;99.90
12604;DHT22;6367;52.508;13.284;2023-12-20T07:42:08;9.70;99.90
12604;DHT22;6367;52.508;13.284;2023-12-20T07:44:34;9.60;99.90
12604;DHT22;6367;52.508;13.284;2023-12-20T07:47:01;9.60;99.90
12604;DHT22;6367;52.508;13.284;2023-12-20T07:49:27;9.50;99.90
12604;DHT22;6367;52.508;13.284;2023-12-20T07:51:53;9.60;99.90
12604;DHT22;6367;52.508;13.284;2023-12-20T07:54:19;10.20;99.90
12604;DHT22;6367;52.508;13.284;2023-12-20T07:56:46;9.60;99.90
12604;DHT22;6367;52.508;13.284;2023-12-20T07:59:11;9.60;99.90
12604;DHT22;6367;52.508;13.284;2023-12-20T08:01:37;9.60;99.90
12604;DHT22;6367;52.508;13.284;2023-12-20T08:04:03;9.50;99.90
12604;DHT22;6367;52.508;13.284;2023-12-20T08:06:28;9.50;99.90
12604;DHT22;6367;52.508;13.284;2023-12-20T08:08:54;9.60;99.90
12604;DHT22;6367;52.508;13.284;2023-12-20T08:11:20;9.70;99.90
12604;DHT22;6367;52.508;13.284;2023-12-20T08:13:45;10.00;99.90
12604;DHT22;6367;52.508;13.284;2023-12-20T08:16:11;9.70;99.90
12604;DHT22;6367;52.508;13.284;2023-12-20T08:18:39;9.70;99.90
12604;DHT22;6367;52.508;13.284;2023-12-20T08:21:04;9.70;99.90
12604;DHT22;6367;52.508;13.284;2023-12-20T08:23:33;9.80;99.90
12604;DHT22;6367;52.508;13.284;2023-12-20T08:25:58;9.80;99.90
12604;DHT22;6367;52.508;13.284;2023-12-20T08:28:28;9.70;99.90
12604;DHT22;6367;52.508;13.284;2023-12-20T08:30:54;9.60;99.90
12604;DHT22;6367;52.508;13.284;2023-12-20T08:33:20;9.70;99.90
12604;DHT22;6367;52.508;13.284;2023-12-20T08:35:45;9.70;99.90
12604;DHT22;6367;52.508;13.284;2023-12-20T08:38:11;9.70;99.90
12604;DHT22;6367;52.508;13.284;2023-12-20T08:40:37;9.80;99.90
12604;DHT22;6367;52.508;13.284;2023-12-20T08:43:03;9.80;99.90
12604;DHT22;6367;52.508;13.284;2023-12-20T08:45:29;10.00;99.90
12604;DHT22;6367;52.508;13.284;2023-12-20T08:47:54;10.00;99.90
12604;DHT22;6367;52.508;13.284;2023-12-20T08:50:20;10.00;99.90
12604;DHT22;6367;52.508;13.284;2023-12-20T08:52:45;10.00;99.90
12604;DHT22;6367;52.508;13.284;2023-12-20T08:55:11;9.90;99.90
12604;DHT22;6367;52.508;13.284;2023-12-20T08:57:38;9.90;99.90
12604;DHT22;6367;52.508;13.284;2023-12-20T09:00:04;9.90;99.90
12604;DHT22;6367;52.508;13.284;2023-12-20T09:02:30;9.90;99.90
12604;DHT22;6367;52.508;13.284;2023-12-20T09:04:55;9.90;99.90
12604;DHT22;6367;52.508;13.284;2023-12-20T09:07:25;9.90;99.90
12604;DHT22;6367;52.508;13.284;2023-12-20T09:09:51;9.90;99.90
12604;DHT22;6367;52.508;13.284;2023-12-20T09:12:21;10.00;99.90
12604;DHT22;6367;52.508;13.284;2023-12-20T09:14:48;10.10;99.90
12604;DHT22;6367;52.508;13.284;2023-12-20T09:17:15;10.10;99.90
12604;DHT22;6367;52.508;13.284;2023-12-20T09:19:41;9.00;99.90
12604;DHT22;6367;52.508;13.284;2023-12-20T09:22:09;10.20;99.90
12604;DHT22;6367;52.508;13.284;2023-12-20T09:24:34;10.20;99.90
12604;DHT22;6367;52.508;13.284;2023-12-20T09:27:00;10.20;99.90
12604;DHT22;6367;52.508;13.284;2023-12-20T09:29:26;10.10;99.90
12604;DHT22;6367;52.508;13.284;2023-12-20T09:31:51;10.30;99.90
12604;DHT22;6367;52.508;13.284;2023-12-20T09:34:17;10.30;99.90
12604;DHT22;6367;52.508;13.284;2023-12-20T09:36:43;10.30;99.90
12604;DHT22;6367;52.508;13.284;2023-12-20T09:39:19;10.20;99.90
12604;DHT22;6367;52.508;13.284;2023-12-20T09:42:05;10.30;99.90
12604;DHT22;6367;52.508;13.284;2023-12-20T09:44:32;10.30;99.90
12604;DHT22;6367;52.508;13.284;2023-12-20T09:47:05;10.20;99.90
12604;DHT22;6367;52.508;13.284;2023-12-20T09:49:32;10.30;99.90
12604;DHT22;6367;52.508;13.284;2023-12-20T09:52:00;10.30;99.90
12604;DHT22;6367;52.508;13.284;2023-12-20T09:54:28;10.30;99.90
12604;DHT22;6367;52.508;13.284;2023-12-20T09:56:54;10.30;99.90
12604;DHT22;6367;52.508;13.284;2023-12-20T09:59:20;10.30;99.90
12604;DHT22;6367;52.508;13.284;2023-12-20T10:01:45;10.40;99.90
12604;DHT22;6367;52.508;13.284;2023-12-20T10:04:12;10.40;99.90
12604;DHT22;6367;52.508;13.284;2023-12-20T10:06:40;10.40;99.90
12604;DHT22;6367;52.508;13.284;2023-12-20T10:09:06;10.30;99.90
12604;DHT22;6367;52.508;13.284;2023-12-20T10:11:32;10.30;99.90
12604;DHT22;6367;52.508;13.284;2023-12-20T10:14:01;10.90;99.90
12604;DHT22;6367;52.508;13.284;2023-12-20T10:16:27;10.30;99.90
12604;DHT22;6367;52.508;13.284;2023-12-20T10:18:54;10.40;99.90
12604;DHT22;6367;52.508;13.284;2023-12-20T10:21:21;10.40;99.90
12604;DHT22;6367;52.508;13.284;2023-12-20T10:23:48;10.30;99.90
12604;DHT22;6367;52.508;13.284;2023-12-20T10:26:41;10.30;99.90
12604;DHT22;6367;52.508;13.284;2023-12-20T10:29:07;10.30;99.90
12604;DHT22;6367;52.508;13.284;2023-12-20T10:31:34;10.40;99.90
12604;DHT22;6367;52.508;13.284;2023-12-20T10:34:01;10.40;99.90
12604;DHT22;6367;52.508;13.284;2023-12-20T10:36:31;10.40;99.90
12604;DHT22;6367;52.508;13.284;2023-12-20T10:38:58;10.50;99.90
12604;DHT22;6367;52.508;13.284;2023-12-20T10:41:29;10.60;99.90
12604;DHT22;6367;52.508;13.284;2023-12-20T10:44:03;10.60;99.90
12604;DHT22;6367;52.508;13.284;2023-12-20T10:46:30;10.50;99.90
12604;DHT22;6367;52.508;13.284;2023-12-20T10:48:56;10.50;99.90
12604;DHT22;6367;52.508;13.284;2023-12-20T10:51:23;10.50;99.90
12604;DHT22;6367;52.508;13.284;2023-12-20T10:53:50;10.50;99.90
12604;DHT22;6367;52.508;13.284;2023-12-20T10:56:19;10.50;99.90
12604;DHT22;6367;52.508;13.284;2023-12-20T10:58:47;10.50;99.90
12604;DHT22;6367;52.508;13.284;2023-12-20T11:01:14;10.50;99.90
12604;DHT22;6367;52.508;13.284;2023-12-20T11:03:45;10.50;99.90
12604;DHT22;6367;52.508;13.284;2023-12-20T11:09:26;10.60;99.90
12604;DHT22;6367;52.508;13.284;2023-12-20T11:12:06;10.40;99.90
12604;DHT22;6367;52.508;13.284;2023-12-20T11:14:41;10.50;99.90
12604;DHT22;6367;52.508;13.284;2023-12-20T11:17:11;10.50;99.90
12604;DHT22;6367;52.508;13.284;2023-12-20T11:20:05;10.50;99.90
12604;DHT22;6367;52.508;13.284;2023-12-20T11:22:32;10.50;99.90
12604;DHT22;6367;52.508;13.284;2023-12-20T11:25:09;10.50;99.90
12604;DHT22;6367;52.508;13.284;2023-12-20T11:27:36;10.50;99.90
12604;DHT22;6367;52.508;13.284;2023-12-20T11:30:04;10.50;99.90
12604;DHT22;6367;52.508;13.284;2023-12-20T11:32:35;10.50;99.90
12604;DHT22;6367;52.508;13.284;2023-12-20T11:35:17;10.60;99.90
12604;DHT22;6367;52.508;13.284;2023-12-20T11:37:43;10.50;99.90
12604;DHT22;6367;52.508;13.284;2023-12-20T11:40:14;10.60;99.90
12604;DHT22;6367;52.508;13.284;2023-12-20T11:42:49;10.50;99.90
12604;DHT22;6367;52.508;13.284;2023-12-20T11:45:23;10.90;99.90
12604;DHT22;6367;52.508;13.284;2023-12-20T11:47:50;10.50;99.90
12604;DHT22;6367;52.508;13.284;2023-12-20T11:50:17;10.60;99.90
12604;DHT22;6367;52.508;13.284;2023-12-20T11:52:43;10.50;99.90
12604;DHT22;6367;52.508;13.284;2023-12-20T11:55:08;10.40;99.90
12604;DHT22;6367;52.508;13.284;2023-12-20T11:57:35;10.50;99.90
12604;DHT22;6367;52.508;13.284;2023-12-20T12:00:02;10.60;99.90
12604;DHT22;6367;52.508;13.284;2023-12-20T12:02:28;10.60;99.90
12604;DHT22;6367;52.508;13.284;2023-12-20T12:04:54;10.70;99.90
12604;DHT22;6367;52.508;13.284;2023-12-20T12:07:21;10.60;99.90
12604;DHT22;6367;52.508;13.284;2023-12-20T12:09:47;10.60;99.90
12604;DHT22;6367;52.508;13.284;2023-12-20T12:12:13;10.50;99.90
12604;DHT22;6367;52.508;13.284;2023-12-20T12:14:39;10.60;99.90
12604;DHT22;6367;52.508;13.284;2023-12-20T12:17:11;10.50;99.90
12604;DHT22;6367;52.508;13.284;2023-12-20T12:19:38;10.50;99.90
12604;DHT22;6367;52.508;13.284;2023-12-20T12:22:12;10.50;99.90
12604;DHT22;6367;52.508;13.284;2023-12-20T12:24:43;10.50;99.90
12604;DHT22;6367;52.508;13.284;2023-12-20T12:27:09;10.60;99.90
12604;DHT22;6367;52.508;13.284;2023-12-20T12:29:35;10.60;99.90
12604;DHT22;6367;52.508;13.284;2023-12-20T12:32:07;10.70;99.90
12604;DHT22;6367;52.508;13.284;2023-12-20T12:34:36;10.60;99.90
12604;DHT22;6367;52.508;13.284;2023-12-20T12:37:03;10.60;99.90
12604;DHT22;6367;52.508;13.284;2023-12-20T12:39:30;10.50;99.90
12604;DHT22;6367;52.508;13.284;2023-12-20T12:41:56;10.50;99.90
12604;DHT22;6367;52.508;13.284;2023-12-20T12:44:22;10.50;99.90
12604;DHT22;6367;52.508;13.284;2023-12-20T12:46:52;10.50;99.90
12604;DHT22;6367;52.508;13.284;2023-12-20T12:49:21;10.50;99.90
12604;DHT22;6367;52.508;13.284;2023-12-20T12:51:47;10.40;99.90
12604;DHT22;6367;52.508;13.284;2023-12-20T12:54:13;11.10;99.90
12604;DHT22;6367;52.508;13.284;2023-12-20T12:56:41;10.40;99.90
12604;DHT22;6367;52.508;13.284;2023-12-20T12:59:07;10.30;99.90
12604;DHT22;6367;52.508;13.284;2023-12-20T13:01:32;10.30;99.90
12604;DHT22;6367;52.508;13.284;2023-12-20T13:03:58;10.40;99.90
12604;DHT22;6367;52.508;13.284;2023-12-20T13:06:24;10.30;99.90
12604;DHT22;6367;52.508;13.284;2023-12-20T13:08:50;10.30;99.90
12604;DHT22;6367;52.508;13.284;2023-12-20T13:11:15;10.40;99.90
12604;DHT22;6367;52.508;13.284;2023-12-20T13:13:41;10.40;99.90
12604;DHT22;6367;52.508;13.284;2023-12-20T13:16:08;10.40;99.90
12604;DHT22;6367;52.508;13.284;2023-12-20T13:18:33;10.40;99.90
12604;DHT22;6367;52.508;13.284;2023-12-20T13:20:59;10.40;99.90
12604;DHT22;6367;52.508;13.284;2023-12-20T13:23:25;10.40;99.90
12604;DHT22;6367;52.508;13.284;2023-12-20T13:25:50;10.40;99.90
12604;DHT22;6367;52.508;13.284;2023-12-20T13:28:16;10.30;99.90
12604;DHT22;6367;52.508;13.284;2023-12-20T13:30:42;10.20;99.90
12604;DHT22;6367;52.508;13.284;2023-12-20T13:33:08;10.10;99.90
12604;DHT22;6367;52.508;13.284;2023-12-20T13:35:34;10.10;99.90
12604;DHT22;6367;52.508;13.284;2023-12-20T13:38:00;9.90;99.90
12604;DHT22;6367;52.508;13.284;2023-12-20T13:40:26;9.90;99.90
12604;DHT22;6367;52.508;13.284;2023-12-20T13:42:51;9.70;99.90
12604;DHT22;6367;52.508;13.284;2023-12-20T13:45:17;9.70;99.90
12604;DHT22;6367;52.508;13.284;2023-12-20T13:47:43;9.70;99.90
12604;DHT22;6367;52.508;13.284;2023-12-20T13:50:09;9.60;99.90
12604;DHT22;6367;52.508;13.284;2023-12-20T13:52:35;9.50;99.90
12604;DHT22;6367;52.508;13.284;2023-12-20T13:55:01;9.50;99.90
12604;DHT22;6367;52.508;13.284;2023-12-20T13:57:27;9.50;99.90
12604;DHT22;6367;52.508;13.284;2023-12-20T13:59:55;9.50;99.90
12604;DHT22;6367;52.508;13.284;2023-12-20T14:02:22;9.70;99.90
12604;DHT22;6367;52.508;13.284;2023-12-20T14:04:48;9.50;99.90
12604;DHT22;6367;52.508;13.284;2023-12-20T14:07:13;9.50;99.90
12604;DHT22;6367;52.508;13.284;2023-12-20T14:09:40;9.40;99.90
12604;DHT22;6367;52.508;13.284;2023-12-20T14:12:13;9.40;99.90
12604;DHT22;6367;52.508;13.284;2023-12-20T14:14:39;9.30;99.90
12604;DHT22;6367;52.508;13.284;2023-12-20T14:17:05;9.40;99.90
12604;DHT22;6367;52.508;13.284;2023-12-20T14:19:33;9.40;99.90
12604;DHT22;6367;52.508;13.284;2023-12-20T14:21:59;9.30;99.90
12604;DHT22;6367;52.508;13.284;2023-12-20T14:24:28;9.20;99.90
12604;DHT22;6367;52.508;13.284;2023-12-20T14:26:54;9.30;99.90
12604;DHT22;6367;52.508;13.284;2023-12-20T14:29:19;9.20;99.90
12604;DHT22;6367;52.508;13.284;2023-12-20T14:31:45;9.30;99.90
12604;DHT22;6367;52.508;13.284;2023-12-20T14:34:11;9.20;99.90
12604;DHT22;6367;52.508;13.284;2023-12-20T14:36:37;9.20;99.90
12604;DHT22;6367;52.508;13.284;2023-12-20T14:39:04;9.10;99.90
12604;DHT22;6367;52.508;13.284;2023-12-20T14:41:30;9.20;99.90
12604;DHT22;6367;52.508;13.284;2023-12-20T14:43:56;9.60;99.90
12604;DHT22;6367;52.508;13.284;2023-12-20T14:46:22;9.20;99.90
12604;DHT22;6367;52.508;13.284;2023-12-20T14:48:47;9.20;99.90
12604;DHT22;6367;52.508;13.284;2023-12-20T14:51:14;9.20;99.90
12604;DHT22;6367;52.508;13.284;2023-12-20T14:53:40;9.30;99.90
12604;DHT22;6367;52.508;13.284;2023-12-20T14:56:07;9.10;99.90
12604;DHT22;6367;52.508;13.284;2023-12-20T14:58:33;9.10;99.90
12604;DHT22;6367;52.508;13.284;2023-12-20T15:00:59;9.10;99.90
12604;DHT22;6367;52.508;13.284;2023-12-20T15:03:25;9.20;99.90
12604;DHT22;6367;52.508;13.284;2023-12-20T15:05:50;9.20;99.90
12604;DHT22;6367;52.508;13.284;2023-12-20T15:08:16;9.20;99.90
12604;DHT22;6367;52.508;13.284;2023-12-20T15:10:42;9.20;99.90
12604;DHT22;6367;52.508;13.284;2023-12-20T15:13:07;9.20;99.90
12604;DHT22;6367;52.508;13.284;2023-12-20T15:15:33;9.30;99.90
12604;DHT22;6367;52.508;13.284;2023-12-20T15:18:02;9.30;99.90
12604;DHT22;6367;52.508;13.284;2023-12-20T15:20:30;9.30;99.90
12604;DHT22;6367;52.508;13.284;2023-12-20T15:22:58;9.30;99.90
12604;DHT22;6367;52.508;13.284;2023-12-20T15:25:30;9.30;99.90
12604;DHT22;6367;52.508;13.284;2023-12-20T15:27:56;9.30;99.90
12604;DHT22;6367;52.508;13.284;2023-12-20T15:30:21;9.20;99.90
12604;DHT22;6367;52.508;13.284;2023-12-20T15:32:49;9.20;99.90